sensor_id;sensor_type;location;lat;lon;timestamp;P1;durP1;ratioP1;P2;durP2;ratioP2
84519;SDS011;74755;43.084;0.132;2024-01-25T00:00:15;3.00;;;1.10;;
84519;SDS011;74755;43.084;0.132;2024-01-25T00:02:41;1.25;;;0.70;;
84519;SDS011;74755;43.084;0.132;2024-01-25T00:05:10;2.85;;;0.90;;
84519;SDS011;74755;43.084;0.132;2024-01-25T00:07:44;1.13;;;0.70;;
84519;SDS011;74755;43.084;0.132;2024-01-25T00:10:10;1.33;;;0.60;;
84519;SDS011;74755;43.084;0.132;2024-01-25T00:12:36;1.10;;;0.80;;
84519;SDS011;74755;43.084;0.132;2024-01-25T00:15:03;1.67;;;0.82;;
84519;SDS011;74755;43.084;0.132;2024-01-25T00:17:29;1.75;;;0.65;;
84519;SDS011;74755;43.084;0.132;2024-01-25T00:19:55;3.92;;;1.02;;
84519;SDS011;74755;43.084;0.132;2024-01-25T00:22:21;1.50;;;0.80;;
84519;SDS011;74755;43.084;0.132;2024-01-25T00:24:47;2.83;;;0.65;;
84519;SDS011;74755;43.084;0.132;2024-01-25T00:27:13;1.50;;;0.60;;
84519;SDS011;74755;43.084;0.132;2024-01-25T00:29:39;0.68;;;0.50;;
84519;SDS011;74755;43.084;0.132;2024-01-25T00:32:05;2.03;;;0.63;;
84519;SDS011;74755;43.084;0.132;2024-01-25T00:34:33;0.50;;;0.40;;
84519;SDS011;74755;43.084;0.132;2024-01-25T00:36:59;1.33;;;0.60;;
84519;SDS011;74755;43.084;0.132;2024-01-25T00:39:25;2.15;;;1.52;;
84519;SDS011;74755;43.084;0.132;2024-01-25T00:41:51;0.70;;;0.60;;
84519;SDS011;74755;43.084;0.132;2024-01-25T00:44:17;0.60;;;0.50;;
84519;SDS011;74755;43.084;0.132;2024-01-25T00:46:43;0.63;;;0.60;;
84519;SDS011;74755;43.084;0.132;2024-01-25T00:49:12;1.30;;;0.60;;
84519;SDS011;74755;43.084;0.132;2024-01-25T00:51:38;0.50;;;0.50;;
84519;SDS011;74755;43.084;0.132;2024-01-25T00:54:07;0.80;;;0.47;;
84519;SDS011;74755;43.084;0.132;2024-01-25T00:56:33;3.13;;;0.60;;
84519;SDS011;74755;43.084;0.132;2024-01-25T00:58:59;0.60;;;0.60;;
84519;SDS011;74755;43.084;0.132;2024-01-25T01:01:25;0.85;;;0.50;;
84519;SDS011;74755;43.084;0.132;2024-01-25T01:03:52;0.55;;;0.40;;
84519;SDS011;74755;43.084;0.132;2024-01-25T01:06:20;1.42;;;0.82;;
84519;SDS011;74755;43.084;0.132;2024-01-25T01:08:46;2.65;;;1.35;;
84519;SDS011;74755;43.084;0.132;2024-01-25T01:11:12;5.53;;;2.35;;
84519;SDS011;74755;43.084;0.132;2024-01-25T01:13:38;1.90;;;1.40;;
84519;SDS011;74755;43.084;0.132;2024-01-25T01:16:04;3.70;;;1.30;;
84519;SDS011;74755;43.084;0.132;2024-01-25T01:18:30;2.28;;;1.00;;
84519;SDS011;74755;43.084;0.132;2024-01-25T01:20:56;4.03;;;1.23;;
84519;SDS011;74755;43.084;0.132;2024-01-25T01:23:22;3.72;;;1.58;;
84519;SDS011;74755;43.084;0.132;2024-01-25T01:25:48;2.88;;;1.75;;
84519;SDS011;74755;43.084;0.132;2024-01-25T01:28:14;7.00;;;2.20;;
84519;SDS011;74755;43.084;0.132;2024-01-25T01:30:41;2.13;;;1.35;;
84519;SDS011;74755;43.084;0.132;2024-01-25T01:33:08;2.00;;;1.25;;
84519;SDS011;74755;43.084;0.132;2024-01-25T01:35:34;1.75;;;0.80;;
84519;SDS011;74755;43.084;0.132;2024-01-25T01:38:00;1.20;;;0.70;;
84519;SDS011;74755;43.084;0.132;2024-01-25T01:40:26;2.28;;;1.73;;
84519;SDS011;74755;43.084;0.132;2024-01-25T01:42:58;1.27;;;0.95;;
84519;SDS011;74755;43.084;0.132;2024-01-25T01:45:24;4.05;;;0.98;;
84519;SDS011;74755;43.084;0.132;2024-01-25T01:47:50;2.33;;;0.60;;
84519;SDS011;74755;43.084;0.132;2024-01-25T01:50:16;1.38;;;0.68;;
84519;SDS011;74755;43.084;0.132;2024-01-25T01:52:43;0.80;;;0.70;;
84519;SDS011;74755;43.084;0.132;2024-01-25T01:55:09;3.92;;;2.08;;
84519;SDS011;74755;43.084;0.132;2024-01-25T01:57:35;2.05;;;1.10;;
84519;SDS011;74755;43.084;0.132;2024-01-25T02:00:03;2.08;;;1.20;;
84519;SDS011;74755;43.084;0.132;2024-01-25T02:02:29;1.75;;;0.95;;
84519;SDS011;74755;43.084;0.132;2024-01-25T02:04:56;0.90;;;0.60;;
84519;SDS011;74755;43.084;0.132;2024-01-25T02:07:22;2.55;;;0.70;;
84519;SDS011;74755;43.084;0.132;2024-01-25T02:09:48;2.05;;;0.70;;
84519;SDS011;74755;43.084;0.132;2024-01-25T02:12:17;3.55;;;0.60;;
84519;SDS011;74755;43.084;0.132;2024-01-25T02:14:43;1.00;;;0.77;;
84519;SDS011;74755;43.084;0.132;2024-01-25T02:17:09;1.90;;;0.70;;
84519;SDS011;74755;43.084;0.132;2024-01-25T02:19:35;5.22;;;0.70;;
84519;SDS011;74755;43.084;0.132;2024-01-25T02:22:01;2.95;;;0.90;;
84519;SDS011;74755;43.084;0.132;2024-01-25T02:24:30;1.73;;;0.77;;
84519;SDS011;74755;43.084;0.132;2024-01-25T02:26:56;1.10;;;0.70;;
84519;SDS011;74755;43.084;0.132;2024-01-25T02:29:22;4.38;;;1.75;;
84519;SDS011;74755;43.084;0.132;2024-01-25T02:31:48;3.10;;;0.70;;
84519;SDS011;74755;43.084;0.132;2024-01-25T02:34:14;1.75;;;0.60;;
84519;SDS011;74755;43.084;0.132;2024-01-25T02:36:40;0.50;;;0.50;;
84519;SDS011;74755;43.084;0.132;2024-01-25T02:39:06;0.52;;;0.43;;
84519;SDS011;74755;43.084;0.132;2024-01-25T02:41:33;0.50;;;0.40;;
84519;SDS011;74755;43.084;0.132;2024-01-25T02:43:59;1.70;;;0.60;;
84519;SDS011;74755;43.084;0.132;2024-01-25T02:46:26;1.20;;;0.52;;
84519;SDS011;74755;43.084;0.132;2024-01-25T02:48:52;0.85;;;0.75;;
84519;SDS011;74755;43.084;0.132;2024-01-25T02:51:18;2.45;;;0.65;;
84519;SDS011;74755;43.084;0.132;2024-01-25T02:53:44;1.33;;;0.60;;
84519;SDS011;74755;43.084;0.132;2024-01-25T02:56:10;1.05;;;0.60;;
84519;SDS011;74755;43.084;0.132;2024-01-25T02:58:36;0.98;;;0.52;;
84519;SDS011;74755;43.084;0.132;2024-01-25T03:01:02;1.02;;;0.45;;
84519;SDS011;74755;43.084;0.132;2024-01-25T03:03:28;1.25;;;0.60;;
84519;SDS011;74755;43.084;0.132;2024-01-25T03:05:54;3.55;;;0.60;;
84519;SDS011;74755;43.084;0.132;2024-01-25T03:08:20;0.88;;;0.80;;
84519;SDS011;74755;43.084;0.132;2024-01-25T03:10:46;4.30;;;0.93;;
84519;SDS011;74755;43.084;0.132;2024-01-25T03:13:15;2.75;;;0.80;;
84519;SDS011;74755;43.084;0.132;2024-01-25T03:15:42;0.63;;;0.50;;
84519;SDS011;74755;43.084;0.132;2024-01-25T03:18:09;2.60;;;0.73;;
84519;SDS011;74755;43.084;0.132;2024-01-25T03:20:35;3.58;;;0.75;;
84519;SDS011;74755;43.084;0.132;2024-01-25T03:23:01;2.72;;;0.73;;
84519;SDS011;74755;43.084;0.132;2024-01-25T03:25:28;3.47;;;0.63;;
84519;SDS011;74755;43.084;0.132;2024-01-25T03:27:54;2.72;;;0.50;;
84519;SDS011;74755;43.084;0.132;2024-01-25T03:30:20;2.47;;;0.90;;
84519;SDS011;74755;43.084;0.132;2024-01-25T03:32:46;0.50;;;0.45;;
84519;SDS011;74755;43.084;0.132;2024-01-25T03:35:12;3.22;;;0.50;;
84519;SDS011;74755;43.084;0.132;2024-01-25T03:37:38;0.60;;;0.60;;
84519;SDS011;74755;43.084;0.132;2024-01-25T03:40:04;0.90;;;0.68;;
84519;SDS011;74755;43.084;0.132;2024-01-25T03:42:31;1.98;;;0.60;;
84519;SDS011;74755;43.084;0.132;2024-01-25T03:44:57;0.90;;;0.60;;
84519;SDS011;74755;43.084;0.132;2024-01-25T03:47:23;0.98;;;0.70;;
84519;SDS011;74755;43.084;0.132;2024-01-25T03:49:50;0.98;;;0.60;;
84519;SDS011;74755;43.084;0.132;2024-01-25T03:52:16;1.30;;;0.50;;
84519;SDS011;74755;43.084;0.132;2024-01-25T03:54:42;0.98;;;0.88;;
84519;SDS011;74755;43.084;0.132;2024-01-25T03:57:08;2.60;;;0.70;;
84519;SDS011;74755;43.084;0.132;2024-01-25T03:59:34;0.50;;;0.50;;
84519;SDS011;74755;43.084;0.132;2024-01-25T04:02:00;0.70;;;0.70;;
84519;SDS011;74755;43.084;0.132;2024-01-25T04:04:26;1.20;;;0.60;;
84519;SDS011;74755;43.084;0.132;2024-01-25T04:06:52;0.70;;;0.70;;
84519;SDS011;74755;43.084;0.132;2024-01-25T04:09:18;0.50;;;0.50;;
84519;SDS011;74755;43.084;0.132;2024-01-25T04:11:44;1.40;;;0.63;;
84519;SDS011;74755;43.084;0.132;2024-01-25T04:14:10;0.90;;;0.70;;
84519;SDS011;74755;43.084;0.132;2024-01-25T04:16:36;2.40;;;0.77;;
84519;SDS011;74755;43.084;0.132;2024-01-25T04:19:02;0.70;;;0.70;;
84519;SDS011;74755;43.084;0.132;2024-01-25T04:21:29;0.70;;;0.70;;
84519;SDS011;74755;43.084;0.132;2024-01-25T04:23:55;0.60;;;0.55;;
84519;SDS011;74755;43.084;0.132;2024-01-25T04:26:21;0.70;;;0.70;;
84519;SDS011;74755;43.084;0.132;2024-01-25T04:28:47;1.38;;;0.80;;
84519;SDS011;74755;43.084;0.132;2024-01-25T04:31:13;1.85;;;0.90;;
84519;SDS011;74755;43.084;0.132;2024-01-25T04:33:39;1.50;;;0.52;;
84519;SDS011;74755;43.084;0.132;2024-01-25T04:36:06;1.08;;;0.65;;
84519;SDS011;74755;43.084;0.132;2024-01-25T04:38:32;2.17;;;0.65;;
84519;SDS011;74755;43.084;0.132;2024-01-25T04:40:58;0.85;;;0.80;;
84519;SDS011;74755;43.084;0.132;2024-01-25T04:43:24;1.48;;;0.90;;
84519;SDS011;74755;43.084;0.132;2024-01-25T04:45:50;2.60;;;0.90;;
84519;SDS011;74755;43.084;0.132;2024-01-25T04:48:16;2.13;;;0.70;;
84519;SDS011;74755;43.084;0.132;2024-01-25T04:50:42;0.52;;;0.52;;
84519;SDS011;74755;43.084;0.132;2024-01-25T04:53:08;5.30;;;1.05;;
84519;SDS011;74755;43.084;0.132;2024-01-25T04:55:34;2.03;;;0.77;;
84519;SDS011;74755;43.084;0.132;2024-01-25T04:58:00;0.50;;;0.50;;
84519;SDS011;74755;43.084;0.132;2024-01-25T05:00:26;2.40;;;0.70;;
84519;SDS011;74755;43.084;0.132;2024-01-25T05:02:52;2.13;;;1.00;;
84519;SDS011;74755;43.084;0.132;2024-01-25T05:05:18;1.00;;;0.80;;
84519;SDS011;74755;43.084;0.132;2024-01-25T05:07:45;2.22;;;0.80;;
84519;SDS011;74755;43.084;0.132;2024-01-25T05:10:11;1.88;;;0.80;;
84519;SDS011;74755;43.084;0.132;2024-01-25T05:12:37;1.23;;;0.80;;
84519;SDS011;74755;43.084;0.132;2024-01-25T05:15:03;1.25;;;0.70;;
84519;SDS011;74755;43.084;0.132;2024-01-25T05:17:30;1.23;;;0.75;;
84519;SDS011;74755;43.084;0.132;2024-01-25T05:19:56;2.42;;;1.02;;
84519;SDS011;74755;43.084;0.132;2024-01-25T05:22:22;2.92;;;1.25;;
84519;SDS011;74755;43.084;0.132;2024-01-25T05:24:48;1.75;;;1.17;;
84519;SDS011;74755;43.084;0.132;2024-01-25T05:27:14;1.25;;;0.85;;
84519;SDS011;74755;43.084;0.132;2024-01-25T05:29:40;2.13;;;1.00;;
84519;SDS011;74755;43.084;0.132;2024-01-25T05:32:06;1.70;;;0.95;;
84519;SDS011;74755;43.084;0.132;2024-01-25T05:34:32;2.45;;;1.17;;
84519;SDS011;74755;43.084;0.132;2024-01-25T05:36:58;2.90;;;1.30;;
84519;SDS011;74755;43.084;0.132;2024-01-25T05:39:27;2.80;;;1.17;;
84519;SDS011;74755;43.084;0.132;2024-01-25T05:41:53;2.92;;;1.33;;
84519;SDS011;74755;43.084;0.132;2024-01-25T05:44:19;2.45;;;1.25;;
84519;SDS011;74755;43.084;0.132;2024-01-25T05:46:45;2.33;;;1.38;;
84519;SDS011;74755;43.084;0.132;2024-01-25T05:49:11;3.58;;;1.20;;
84519;SDS011;74755;43.084;0.132;2024-01-25T05:51:37;1.77;;;1.20;;
84519;SDS011;74755;43.084;0.132;2024-01-25T05:54:03;3.83;;;1.90;;
84519;SDS011;74755;43.084;0.132;2024-01-25T05:56:30;1.58;;;1.00;;
84519;SDS011;74755;43.084;0.132;2024-01-25T05:58:56;1.65;;;0.90;;
84519;SDS011;74755;43.084;0.132;2024-01-25T06:01:22;1.58;;;0.93;;
84519;SDS011;74755;43.084;0.132;2024-01-25T06:03:48;1.98;;;1.10;;
84519;SDS011;74755;43.084;0.132;2024-01-25T06:06:14;1.83;;;1.30;;
84519;SDS011;74755;43.084;0.132;2024-01-25T06:08:40;2.22;;;1.05;;
84519;SDS011;74755;43.084;0.132;2024-01-25T06:11:06;3.65;;;0.95;;
84519;SDS011;74755;43.084;0.132;2024-01-25T06:13:33;2.00;;;1.10;;
84519;SDS011;74755;43.084;0.132;2024-01-25T06:15:59;1.80;;;1.48;;
84519;SDS011;74755;43.084;0.132;2024-01-25T06:18:26;1.95;;;1.00;;
84519;SDS011;74755;43.084;0.132;2024-01-25T06:20:52;1.98;;;0.98;;
84519;SDS011;74755;43.084;0.132;2024-01-25T06:23:18;2.15;;;0.77;;
84519;SDS011;74755;43.084;0.132;2024-01-25T06:25:45;1.10;;;0.93;;
84519;SDS011;74755;43.084;0.132;2024-01-25T06:28:11;0.65;;;0.65;;
84519;SDS011;74755;43.084;0.132;2024-01-25T06:30:37;1.83;;;0.70;;
84519;SDS011;74755;43.084;0.132;2024-01-25T06:33:03;1.42;;;1.20;;
84519;SDS011;74755;43.084;0.132;2024-01-25T06:35:30;0.70;;;0.70;;
84519;SDS011;74755;43.084;0.132;2024-01-25T06:37:56;2.83;;;0.85;;
84519;SDS011;74755;43.084;0.132;2024-01-25T06:40:22;2.60;;;0.80;;
84519;SDS011;74755;43.084;0.132;2024-01-25T06:42:51;2.33;;;0.82;;
84519;SDS011;74755;43.084;0.132;2024-01-25T06:45:17;3.13;;;0.80;;
84519;SDS011;74755;43.084;0.132;2024-01-25T06:47:43;1.10;;;0.88;;
84519;SDS011;74755;43.084;0.132;2024-01-25T06:50:09;1.42;;;0.90;;
84519;SDS011;74755;43.084;0.132;2024-01-25T06:52:35;4.47;;;0.82;;
84519;SDS011;74755;43.084;0.132;2024-01-25T06:55:01;2.30;;;1.23;;
84519;SDS011;74755;43.084;0.132;2024-01-25T06:57:28;1.00;;;0.90;;
84519;SDS011;74755;43.084;0.132;2024-01-25T06:59:54;0.73;;;0.73;;
84519;SDS011;74755;43.084;0.132;2024-01-25T07:02:20;1.00;;;1.00;;
84519;SDS011;74755;43.084;0.132;2024-01-25T07:04:46;2.55;;;1.40;;
84519;SDS011;74755;43.084;0.132;2024-01-25T07:07:12;1.35;;;1.25;;
84519;SDS011;74755;43.084;0.132;2024-01-25T07:09:38;2.15;;;1.20;;
84519;SDS011;74755;43.084;0.132;2024-01-25T07:12:04;1.60;;;1.27;;
84519;SDS011;74755;43.084;0.132;2024-01-25T07:14:30;1.17;;;1.08;;
84519;SDS011;74755;43.084;0.132;2024-01-25T07:16:56;1.25;;;1.10;;
84519;SDS011;74755;43.084;0.132;2024-01-25T07:19:22;2.50;;;0.90;;
84519;SDS011;74755;43.084;0.132;2024-01-25T07:21:48;1.35;;;1.00;;
84519;SDS011;74755;43.084;0.132;2024-01-25T07:24:15;1.30;;;0.98;;
84519;SDS011;74755;43.084;0.132;2024-01-25T07:26:41;22.60;;;1.50;;
84519;SDS011;74755;43.084;0.132;2024-01-25T07:29:07;1.50;;;1.10;;
84519;SDS011;74755;43.084;0.132;2024-01-25T07:31:33;5.35;;;1.48;;
84519;SDS011;74755;43.084;0.132;2024-01-25T07:33:59;3.15;;;1.40;;
84519;SDS011;74755;43.084;0.132;2024-01-25T07:39:28;1.67;;;1.20;;
84519;SDS011;74755;43.084;0.132;2024-01-25T07:41:55;2.08;;;1.30;;
84519;SDS011;74755;43.084;0.132;2024-01-25T07:44:21;2.20;;;1.30;;
84519;SDS011;74755;43.084;0.132;2024-01-25T07:46:47;2.03;;;1.02;;
84519;SDS011;74755;43.084;0.132;2024-01-25T07:49:13;1.50;;;1.08;;
84519;SDS011;74755;43.084;0.132;2024-01-25T07:51:39;3.28;;;1.30;;
84519;SDS011;74755;43.084;0.132;2024-01-25T07:54:05;2.78;;;1.60;;
84519;SDS011;74755;43.084;0.132;2024-01-25T07:56:31;2.40;;;1.00;;
84519;SDS011;74755;43.084;0.132;2024-01-25T07:58:57;1.35;;;1.00;;
84519;SDS011;74755;43.084;0.132;2024-01-25T08:01:25;3.85;;;1.70;;
84519;SDS011;74755;43.084;0.132;2024-01-25T08:03:51;2.78;;;1.75;;
84519;SDS011;74755;43.084;0.132;2024-01-25T08:06:17;4.88;;;2.53;;
84519;SDS011;74755;43.084;0.132;2024-01-25T08:08:43;4.43;;;3.00;;
84519;SDS011;74755;43.084;0.132;2024-01-25T08:11:09;7.63;;;3.13;;
84519;SDS011;74755;43.084;0.132;2024-01-25T08:13:35;4.78;;;2.42;;
84519;SDS011;74755;43.084;0.132;2024-01-25T08:16:01;4.85;;;2.30;;
84519;SDS011;74755;43.084;0.132;2024-01-25T08:18:27;4.13;;;1.80;;
84519;SDS011;74755;43.084;0.132;2024-01-25T08:20:55;4.88;;;1.80;;
84519;SDS011;74755;43.084;0.132;2024-01-25T08:23:21;5.15;;;2.15;;
84519;SDS011;74755;43.084;0.132;2024-01-25T08:25:47;5.35;;;2.40;;
84519;SDS011;74755;43.084;0.132;2024-01-25T08:28:13;3.33;;;2.40;;
84519;SDS011;74755;43.084;0.132;2024-01-25T08:30:39;4.95;;;2.70;;
84519;SDS011;74755;43.084;0.132;2024-01-25T08:33:05;5.00;;;2.42;;
84519;SDS011;74755;43.084;0.132;2024-01-25T08:35:32;4.57;;;1.63;;
84519;SDS011;74755;43.084;0.132;2024-01-25T08:37:58;2.55;;;1.33;;
84519;SDS011;74755;43.084;0.132;2024-01-25T08:40:24;4.38;;;2.00;;
84519;SDS011;74755;43.084;0.132;2024-01-25T08:42:50;7.03;;;1.50;;
84519;SDS011;74755;43.084;0.132;2024-01-25T08:45:16;6.72;;;1.67;;
84519;SDS011;74755;43.084;0.132;2024-01-25T08:47:44;1.50;;;1.00;;
84519;SDS011;74755;43.084;0.132;2024-01-25T08:50:11;2.92;;;1.70;;
84519;SDS011;74755;43.084;0.132;2024-01-25T08:52:37;2.60;;;1.60;;
84519;SDS011;74755;43.084;0.132;2024-01-25T08:55:06;3.33;;;1.50;;
84519;SDS011;74755;43.084;0.132;2024-01-25T08:57:32;2.42;;;1.60;;
84519;SDS011;74755;43.084;0.132;2024-01-25T08:59:58;1.98;;;1.17;;
84519;SDS011;74755;43.084;0.132;2024-01-25T09:02:25;3.10;;;1.33;;
84519;SDS011;74755;43.084;0.132;2024-01-25T09:04:52;5.18;;;0.77;;
84519;SDS011;74755;43.084;0.132;2024-01-25T09:07:19;5.00;;;1.45;;
84519;SDS011;74755;43.084;0.132;2024-01-25T09:09:45;3.30;;;0.80;;
84519;SDS011;74755;43.084;0.132;2024-01-25T09:12:11;8.15;;;1.13;;
84519;SDS011;74755;43.084;0.132;2024-01-25T09:14:39;5.20;;;1.15;;
84519;SDS011;74755;43.084;0.132;2024-01-25T09:17:07;30.67;;;5.95;;
84519;SDS011;74755;43.084;0.132;2024-01-25T09:19:33;16.70;;;3.10;;
84519;SDS011;74755;43.084;0.132;2024-01-25T09:22:00;12.43;;;2.10;;
84519;SDS011;74755;43.084;0.132;2024-01-25T09:24:29;9.93;;;1.85;;
84519;SDS011;74755;43.084;0.132;2024-01-25T09:26:56;12.43;;;2.65;;
84519;SDS011;74755;43.084;0.132;2024-01-25T09:29:24;4.13;;;0.80;;
84519;SDS011;74755;43.084;0.132;2024-01-25T09:31:50;4.53;;;1.00;;
84519;SDS011;74755;43.084;0.132;2024-01-25T09:34:16;4.60;;;1.20;;
84519;SDS011;74755;43.084;0.132;2024-01-25T09:36:42;5.20;;;1.52;;
84519;SDS011;74755;43.084;0.132;2024-01-25T09:39:08;7.80;;;1.75;;
84519;SDS011;74755;43.084;0.132;2024-01-25T09:41:34;10.07;;;2.13;;
84519;SDS011;74755;43.084;0.132;2024-01-25T09:44:00;6.35;;;1.50;;
84519;SDS011;74755;43.084;0.132;2024-01-25T09:46:26;9.63;;;1.27;;
84519;SDS011;74755;43.084;0.132;2024-01-25T09:48:53;9.00;;;1.52;;
84519;SDS011;74755;43.084;0.132;2024-01-25T09:51:19;3.42;;;1.27;;
84519;SDS011;74755;43.084;0.132;2024-01-25T09:53:45;5.32;;;1.30;;
84519;SDS011;74755;43.084;0.132;2024-01-25T09:56:14;3.05;;;1.13;;
84519;SDS011;74755;43.084;0.132;2024-01-25T09:58:41;4.07;;;0.90;;
84519;SDS011;74755;43.084;0.132;2024-01-25T10:01:08;11.15;;;1.67;;
84519;SDS011;74755;43.084;0.132;2024-01-25T10:03:44;3.35;;;1.23;;
84519;SDS011;74755;43.084;0.132;2024-01-25T10:06:11;4.95;;;1.38;;
84519;SDS011;74755;43.084;0.132;2024-01-25T10:08:37;5.13;;;1.40;;
84519;SDS011;74755;43.084;0.132;2024-01-25T10:11:04;6.47;;;1.75;;
84519;SDS011;74755;43.084;0.132;2024-01-25T10:13:30;8.35;;;1.90;;
84519;SDS011;74755;43.084;0.132;2024-01-25T10:15:56;8.95;;;1.27;;
84519;SDS011;74755;43.084;0.132;2024-01-25T10:18:23;6.95;;;1.10;;
84519;SDS011;74755;43.084;0.132;2024-01-25T10:20:49;3.13;;;0.88;;
84519;SDS011;74755;43.084;0.132;2024-01-25T10:23:15;2.83;;;0.70;;
84519;SDS011;74755;43.084;0.132;2024-01-25T10:25:41;6.47;;;1.20;;
84519;SDS011;74755;43.084;0.132;2024-01-25T10:28:07;3.42;;;0.90;;
84519;SDS011;74755;43.084;0.132;2024-01-25T10:30:34;4.45;;;0.93;;
84519;SDS011;74755;43.084;0.132;2024-01-25T10:33:01;6.80;;;1.00;;
84519;SDS011;74755;43.084;0.132;2024-01-25T10:35:29;1.92;;;0.68;;
84519;SDS011;74755;43.084;0.132;2024-01-25T10:37:55;5.10;;;0.88;;
84519;SDS011;74755;43.084;0.132;2024-01-25T10:40:22;4.63;;;0.82;;
84519;SDS011;74755;43.084;0.132;2024-01-25T10:42:48;4.43;;;0.80;;
84519;SDS011;74755;43.084;0.132;2024-01-25T10:45:14;5.63;;;0.70;;
84519;SDS011;74755;43.084;0.132;2024-01-25T10:47:40;1.92;;;0.50;;
84519;SDS011;74755;43.084;0.132;2024-01-25T10:50:07;3.80;;;0.63;;
84519;SDS011;74755;43.084;0.132;2024-01-25T10:52:37;4.35;;;0.82;;
84519;SDS011;74755;43.084;0.132;2024-01-25T10:55:03;2.35;;;0.70;;
84519;SDS011;74755;43.084;0.132;2024-01-25T10:57:37;7.32;;;0.82;;
84519;SDS011;74755;43.084;0.132;2024-01-25T11:00:06;2.35;;;0.63;;
84519;SDS011;74755;43.084;0.132;2024-01-25T11:02:35;2.80;;;0.60;;
84519;SDS011;74755;43.084;0.132;2024-01-25T11:05:01;1.92;;;0.50;;
84519;SDS011;74755;43.084;0.132;2024-01-25T11:07:28;2.47;;;0.40;;
84519;SDS011;74755;43.084;0.132;2024-01-25T11:09:54;4.18;;;0.50;;
84519;SDS011;74755;43.084;0.132;2024-01-25T11:12:21;2.13;;;0.95;;
84519;SDS011;74755;43.084;0.132;2024-01-25T11:14:53;1.38;;;0.30;;
84519;SDS011;74755;43.084;0.132;2024-01-25T11:17:21;2.78;;;0.70;;
84519;SDS011;74755;43.084;0.132;2024-01-25T11:19:50;4.53;;;0.63;;
84519;SDS011;74755;43.084;0.132;2024-01-25T11:22:16;2.58;;;0.80;;
84519;SDS011;74755;43.084;0.132;2024-01-25T11:24:43;2.03;;;0.70;;
84519;SDS011;74755;43.084;0.132;2024-01-25T11:27:10;4.13;;;0.77;;
84519;SDS011;74755;43.084;0.132;2024-01-25T11:29:37;4.18;;;0.68;;
84519;SDS011;74755;43.084;0.132;2024-01-25T11:32:05;1.45;;;0.60;;
84519;SDS011;74755;43.084;0.132;2024-01-25T11:34:31;2.40;;;0.40;;
84519;SDS011;74755;43.084;0.132;2024-01-25T11:36:57;1.65;;;0.47;;
84519;SDS011;74755;43.084;0.132;2024-01-25T11:39:23;3.40;;;0.52;;
84519;SDS011;74755;43.084;0.132;2024-01-25T11:41:50;0.20;;;0.20;;
84519;SDS011;74755;43.084;0.132;2024-01-25T11:44:17;0.45;;;0.30;;
84519;SDS011;74755;43.084;0.132;2024-01-25T11:46:43;1.90;;;0.30;;
84519;SDS011;74755;43.084;0.132;2024-01-25T11:49:09;1.00;;;0.43;;
84519;SDS011;74755;43.084;0.132;2024-01-25T11:51:35;1.45;;;1.00;;
84519;SDS011;74755;43.084;0.132;2024-01-25T11:54:01;3.00;;;1.20;;
84519;SDS011;74755;43.084;0.132;2024-01-25T11:56:30;1.85;;;1.25;;
84519;SDS011;74755;43.084;0.132;2024-01-25T11:58:57;1.80;;;1.70;;
84519;SDS011;74755;43.084;0.132;2024-01-25T12:01:26;1.95;;;1.48;;
84519;SDS011;74755;43.084;0.132;2024-01-25T12:03:53;1.90;;;1.80;;
84519;SDS011;74755;43.084;0.132;2024-01-25T12:06:19;1.92;;;1.80;;
84519;SDS011;74755;43.084;0.132;2024-01-25T12:08:45;2.10;;;2.00;;
84519;SDS011;74755;43.084;0.132;2024-01-25T12:11:16;2.17;;;1.80;;
84519;SDS011;74755;43.084;0.132;2024-01-25T12:13:44;2.95;;;2.00;;
84519;SDS011;74755;43.084;0.132;2024-01-25T12:16:10;2.20;;;2.00;;
84519;SDS011;74755;43.084;0.132;2024-01-25T12:18:37;3.83;;;2.40;;
84519;SDS011;74755;43.084;0.132;2024-01-25T12:21:04;3.25;;;2.35;;
84519;SDS011;74755;43.084;0.132;2024-01-25T12:23:31;2.17;;;2.00;;
84519;SDS011;74755;43.084;0.132;2024-01-25T12:26:05;1.92;;;1.83;;
84519;SDS011;74755;43.084;0.132;2024-01-25T12:28:31;2.15;;;1.70;;
84519;SDS011;74755;43.084;0.132;2024-01-25T12:30:58;1.73;;;1.60;;
84519;SDS011;74755;43.084;0.132;2024-01-25T12:33:24;2.38;;;1.40;;
84519;SDS011;74755;43.084;0.132;2024-01-25T12:35:50;1.48;;;1.38;;
84519;SDS011;74755;43.084;0.132;2024-01-25T12:38:16;1.52;;;1.50;;
84519;SDS011;74755;43.084;0.132;2024-01-25T12:40:43;6.80;;;1.80;;
84519;SDS011;74755;43.084;0.132;2024-01-25T12:43:09;1.10;;;1.10;;
84519;SDS011;74755;43.084;0.132;2024-01-25T12:45:36;2.05;;;1.50;;
84519;SDS011;74755;43.084;0.132;2024-01-25T12:48:02;1.75;;;1.48;;
84519;SDS011;74755;43.084;0.132;2024-01-25T12:50:28;1.42;;;1.42;;
84519;SDS011;74755;43.084;0.132;2024-01-25T12:52:54;1.50;;;1.38;;
84519;SDS011;74755;43.084;0.132;2024-01-25T12:55:20;1.70;;;1.60;;
84519;SDS011;74755;43.084;0.132;2024-01-25T12:57:46;2.10;;;1.90;;
84519;SDS011;74755;43.084;0.132;2024-01-25T13:00:12;2.42;;;1.70;;
84519;SDS011;74755;43.084;0.132;2024-01-25T13:02:38;3.17;;;2.80;;
84519;SDS011;74755;43.084;0.132;2024-01-25T13:05:04;2.83;;;2.63;;
84519;SDS011;74755;43.084;0.132;2024-01-25T13:07:30;2.95;;;2.60;;
84519;SDS011;74755;43.084;0.132;2024-01-25T13:09:57;4.45;;;3.22;;
84519;SDS011;74755;43.084;0.132;2024-01-25T13:12:23;11.48;;;3.50;;
84519;SDS011;74755;43.084;0.132;2024-01-25T13:14:49;3.30;;;3.00;;
84519;SDS011;74755;43.084;0.132;2024-01-25T13:17:15;4.38;;;3.47;;
84519;SDS011;74755;43.084;0.132;2024-01-25T13:19:41;3.85;;;3.25;;
84519;SDS011;74755;43.084;0.132;2024-01-25T13:22:07;2.70;;;2.60;;
84519;SDS011;74755;43.084;0.132;2024-01-25T13:24:33;3.60;;;3.30;;
84519;SDS011;74755;43.084;0.132;2024-01-25T13:26:59;11.80;;;3.65;;
84519;SDS011;74755;43.084;0.132;2024-01-25T13:29:25;3.42;;;2.90;;
84519;SDS011;74755;43.084;0.132;2024-01-25T13:31:51;3.40;;;3.10;;
84519;SDS011;74755;43.084;0.132;2024-01-25T13:34:17;4.63;;;3.10;;
84519;SDS011;74755;43.084;0.132;2024-01-25T13:36:43;4.53;;;2.80;;
84519;SDS011;74755;43.084;0.132;2024-01-25T13:39:09;4.50;;;2.92;;
84519;SDS011;74755;43.084;0.132;2024-01-25T13:41:35;3.38;;;3.05;;
84519;SDS011;74755;43.084;0.132;2024-01-25T13:44:01;2.88;;;2.75;;
84519;SDS011;74755;43.084;0.132;2024-01-25T13:46:27;5.13;;;2.70;;
84519;SDS011;74755;43.084;0.132;2024-01-25T13:48:53;3.08;;;2.70;;
84519;SDS011;74755;43.084;0.132;2024-01-25T13:51:20;4.40;;;3.25;;
84519;SDS011;74755;43.084;0.132;2024-01-25T13:53:46;4.20;;;3.20;;
84519;SDS011;74755;43.084;0.132;2024-01-25T13:56:14;4.88;;;2.70;;
84519;SDS011;74755;43.084;0.132;2024-01-25T13:58:40;3.00;;;2.80;;
84519;SDS011;74755;43.084;0.132;2024-01-25T14:01:06;3.70;;;3.40;;
84519;SDS011;74755;43.084;0.132;2024-01-25T14:03:32;4.80;;;3.08;;
84519;SDS011;74755;43.084;0.132;2024-01-25T14:05:59;3.10;;;2.70;;
84519;SDS011;74755;43.084;0.132;2024-01-25T14:08:29;4.05;;;2.80;;
84519;SDS011;74755;43.084;0.132;2024-01-25T14:10:55;3.45;;;2.60;;
84519;SDS011;74755;43.084;0.132;2024-01-25T14:13:22;4.28;;;3.88;;
84519;SDS011;74755;43.084;0.132;2024-01-25T14:15:48;6.32;;;3.40;;
84519;SDS011;74755;43.084;0.132;2024-01-25T14:18:14;4.82;;;2.92;;
84519;SDS011;74755;43.084;0.132;2024-01-25T14:20:40;3.50;;;3.10;;
84519;SDS011;74755;43.084;0.132;2024-01-25T14:23:06;4.93;;;2.63;;
84519;SDS011;74755;43.084;0.132;2024-01-25T14:25:32;6.38;;;2.80;;
84519;SDS011;74755;43.084;0.132;2024-01-25T14:27:58;3.22;;;2.83;;
84519;SDS011;74755;43.084;0.132;2024-01-25T14:30:24;5.13;;;2.75;;
84519;SDS011;74755;43.084;0.132;2024-01-25T14:32:50;2.88;;;2.53;;
84519;SDS011;74755;43.084;0.132;2024-01-25T14:35:16;4.70;;;2.97;;
84519;SDS011;74755;43.084;0.132;2024-01-25T14:37:42;3.40;;;3.10;;
84519;SDS011;74755;43.084;0.132;2024-01-25T14:40:09;3.92;;;3.53;;
84519;SDS011;74755;43.084;0.132;2024-01-25T14:42:36;7.13;;;3.70;;
84519;SDS011;74755;43.084;0.132;2024-01-25T14:45:03;5.68;;;4.18;;